createdAt,value
2018-08-25T00:04:37.820Z,14.3
2018-08-25T00:14:52.649Z,14.6
2018-08-25T00:25:07.446Z,14.7
2018-08-25T00:35:21.620Z,14.7
2018-08-25T00:45:36.366Z,14.7
2018-08-25T00:55:50.799Z,14.3
2018-08-25T01:06:06.483Z,14.2
2018-08-25T01:16:20.443Z,14.1
2018-08-25T01:26:35.609Z,13.8
2018-08-25T01:36:50.804Z,13.8
2018-08-25T01:47:05.234Z,13.9
2018-08-25T01:57:20.457Z,13.9
2018-08-25T02:07:35.341Z,13.8
2018-08-25T02:17:50.216Z,13.8
2018-08-25T02:28:05.335Z,14
2018-08-25T02:38:20.915Z,13.9
2018-08-25T02:48:35.821Z,14.1
2018-08-25T02:58:49.796Z,14.1
2018-08-25T03:09:04.045Z,13.8
2018-08-25T03:19:19.301Z,12.8
2018-08-25T03:29:34.230Z,12.5
2018-08-25T03:39:48.226Z,12.2
2018-08-25T03:50:03.064Z,12.1
2018-08-25T04:00:18.294Z,12
2018-08-25T04:10:33.799Z,12.1
2018-08-25T04:20:49.465Z,12
2018-08-25T04:31:04.430Z,12
2018-08-25T04:41:19.750Z,12.1
2018-08-25T04:51:33.676Z,12.1
2018-08-25T05:01:48.336Z,12.2
2018-08-25T05:12:03.896Z,12.3
2018-08-25T05:22:19.233Z,12.4
2018-08-25T05:32:34.850Z,12.4
2018-08-25T05:42:48.712Z,12.3
2018-08-25T05:53:04.346Z,12.3
2018-08-25T06:03:18.130Z,12.3
2018-08-25T06:13:33.460Z,12.4
2018-08-25T06:23:47.886Z,12.5
2018-08-25T06:44:17.023Z,12.9
2018-08-25T06:54:30.803Z,12.6
2018-08-25T07:04:44.605Z,12.8
2018-08-25T07:14:59.185Z,13.3
2018-08-25T07:25:13.982Z,13.3
2018-08-25T07:35:29.238Z,13.2
2018-08-25T07:45:43.479Z,13.9
2018-08-25T07:55:59.206Z,13.2
2018-08-25T08:06:14.369Z,12.2
2018-08-25T08:16:28.858Z,11.6
2018-08-25T08:26:44.247Z,12
2018-08-25T08:36:59.899Z,12.8
2018-08-25T08:47:13.696Z,12.9
2018-08-25T08:57:28.646Z,12.8
2018-08-25T09:07:42.501Z,13
2018-08-25T09:17:57.653Z,12.7
2018-08-25T09:28:11.367Z,12.6
2018-08-25T09:38:27.240Z,15.4
2018-08-25T09:48:41.159Z,14.5
2018-08-25T09:58:56.449Z,15.6
2018-08-25T10:09:11.535Z,15.6
2018-08-25T10:19:25.846Z,16.5
2018-08-25T10:29:41.430Z,17.2
2018-08-25T10:39:55.876Z,15.7
2018-08-25T10:50:09.728Z,16.1
2018-08-25T11:00:24.567Z,18.4
2018-08-25T11:10:39.827Z,17.7
2018-08-25T11:20:54.212Z,18.8
2018-08-25T11:31:08.786Z,17.8
2018-08-25T11:41:23.824Z,19
2018-08-25T11:51:38.474Z,17.9
2018-08-25T12:01:53.998Z,18
2018-08-25T12:12:08.865Z,19.1
2018-08-25T12:22:24.535Z,19.6
2018-08-25T12:32:39.591Z,18.5
2018-08-25T12:42:53.855Z,19.1
2018-08-25T12:53:07.750Z,19.8
2018-08-25T13:03:22.094Z,19
2018-08-25T13:13:37.590Z,19.3
2018-08-25T13:23:52.849Z,18.3
2018-08-25T13:34:07.298Z,13.7
2018-08-25T13:44:22.866Z,12.6
2018-08-25T13:54:36.991Z,13.3
2018-08-25T14:04:51.776Z,13.4
2018-08-25T14:15:05.692Z,13
2018-08-25T14:25:20.443Z,13.4
2018-08-25T14:35:35.364Z,14.3
2018-08-25T14:45:50.963Z,14.6
2018-08-25T14:56:05.189Z,14.8
2018-08-25T15:06:20.008Z,14.8
2018-08-25T15:16:35.227Z,15
2018-08-25T15:26:49.358Z,16.3
2018-08-25T15:37:04.898Z,16
2018-08-25T15:47:20.001Z,16.3
2018-08-25T15:57:34.361Z,15.5
2018-08-25T16:07:50.095Z,14.8
2018-08-25T16:18:04.220Z,14.3
2018-08-25T16:28:18.332Z,13.5
2018-08-25T16:38:33.610Z,12.7
2018-08-25T16:48:48.459Z,13.7
2018-08-25T16:59:03.545Z,14.4
2018-08-25T17:09:18.905Z,14
2018-08-25T17:19:32.796Z,13.6
2018-08-25T17:29:47.939Z,12.7
2018-08-25T17:40:03.293Z,12.8
2018-08-25T17:50:18.092Z,12.9
2018-08-25T18:00:31.763Z,12.8
2018-08-25T18:10:45.671Z,12.5
2018-08-25T18:21:00.523Z,12.2
2018-08-25T18:31:15.314Z,12
2018-08-25T18:41:30.072Z,11.8
2018-08-25T18:51:44.571Z,11.7
2018-08-25T19:01:59.949Z,11.7
2018-08-25T19:12:15.723Z,11.7
2018-08-25T19:22:29.437Z,11.9
2018-08-25T19:32:43.748Z,11.8
2018-08-25T19:42:58.171Z,11.7
2018-08-25T19:53:13.139Z,11.6
2018-08-25T20:03:28.547Z,11.3
2018-08-25T20:13:42.931Z,11
2018-08-25T20:23:57.915Z,10.9
2018-08-25T20:34:11.709Z,10.9
2018-08-25T20:44:25.443Z,10.8
2018-08-25T20:54:40.792Z,10.6
2018-08-25T21:04:54.802Z,10.4
2018-08-25T21:15:08.816Z,10.3
2018-08-25T21:25:22.938Z,10.3
2018-08-25T21:35:37.305Z,10.2
2018-08-25T21:45:51.074Z,10
2018-08-25T21:56:04.984Z,9.9
2018-08-25T22:06:20.186Z,9.7
2018-08-25T22:16:34.946Z,9.7
2018-08-25T22:26:49.133Z,9.5
2018-08-25T22:37:03.536Z,9.4
2018-08-25T22:47:18.028Z,9.4
2018-08-25T22:57:32.949Z,9.3
2018-08-25T23:07:48.047Z,9.3
2018-08-25T23:18:01.828Z,9.3
2018-08-25T23:28:17.127Z,9.2
2018-08-25T23:38:31.275Z,9.1
2018-08-25T23:48:45.853Z,9.2
2018-08-25T23:58:59.840Z,8.9
